Metar z połowy godziny Komunikat METAR ze strony awiacja.imgw.pl Metar Mil EPPR METAR EPPR 230700Z 26014KT 9999 FEW083 08/M02 Q1017 RMK 075 052 2/2=